Decoded Metar for SABE (BUENOS AIRES in ARGENTINA) (IATA:AEP) | Meteo·Mobile Aviation Weather
aviador You're here:

SABE Decoded Metar

BUENOS AIRES in ARGENTINA
Report Time2018-12-16 18:00:00
UTC Time2018-12-16 18:31:28
Flight Rules vfr VFR
Wind020° at 08 kt
W.Decomp.*RWY 31: 1.8 kt HW 7.8 kt RCW
W.Rank020° ranks 5
Current wind is above 020° avg. (7.4)
Visibility9999 m
Phenomena:N/A
Clouds:Few 030 Hf
Expected CloudBase > 2,400 ft AGL from Temp-Dew spread
CeilingNone
Temp28°C (ISA +13)
Dew Point22°C (70% RH)
Heat Index30.7°C
QNH1011 hPa
Density Alt1,936 ft
Elevation20 ft
Report Wrong Elevation
Raw Report
SABE 161800Z 02008KT 9999 FEW030 28/22 Q1011 NOSIG=

Extra information for SABE:More info

Metar Taf Metar & Taf Last 4 Metars F.Rules Stats Wind Profile Meteogram Temp Stats Airport Information Weather charts Add Link Nearby VenuesMetar ALERT Operation Metar Decoded Social comments